sensor_id;sensor_type;location;lat;lon;timestamp;temperature;humidity
7588;DHT22;3835;48.850;8.938;2023-10-09T00:01:25;12.90;99.90
7588;DHT22;3835;48.850;8.938;2023-10-09T00:03:52;12.80;99.90
7588;DHT22;3835;48.850;8.938;2023-10-09T00:06:20;12.80;99.90
7588;DHT22;3835;48.850;8.938;2023-10-09T00:08:55;12.80;99.90
7588;DHT22;3835;48.850;8.938;2023-10-09T00:11:25;12.80;99.90
7588;DHT22;3835;48.850;8.938;2023-10-09T00:13:55;12.90;99.90
7588;DHT22;3835;48.850;8.938;2023-10-09T00:16:25;12.90;99.90
7588;DHT22;3835;48.850;8.938;2023-10-09T00:19:00;13.00;99.90
7588;DHT22;3835;48.850;8.938;2023-10-09T00:21:40;13.10;99.90
7588;DHT22;3835;48.850;8.938;2023-10-09T00:24:07;13.20;99.90
7588;DHT22;3835;48.850;8.938;2023-10-09T00:26:40;13.10;99.90
7588;DHT22;3835;48.850;8.938;2023-10-09T00:29:12;13.10;99.90
7588;DHT22;3835;48.850;8.938;2023-10-09T00:31:48;13.20;99.90
7588;DHT22;3835;48.850;8.938;2023-10-09T00:34:20;13.20;99.90
7588;DHT22;3835;48.850;8.938;2023-10-09T00:36:48;13.40;99.90
7588;DHT22;3835;48.850;8.938;2023-10-09T00:39:17;13.40;99.90
7588;DHT22;3835;48.850;8.938;2023-10-09T00:42:00;13.40;99.90
7588;DHT22;3835;48.850;8.938;2023-10-09T00:44:28;13.40;99.90
7588;DHT22;3835;48.850;8.938;2023-10-09T00:47:05;13.40;99.90
7588;DHT22;3835;48.850;8.938;2023-10-09T00:49:37;13.40;99.90
7588;DHT22;3835;48.850;8.938;2023-10-09T00:52:09;13.50;99.90
7588;DHT22;3835;48.850;8.938;2023-10-09T00:54:44;13.50;99.90
7588;DHT22;3835;48.850;8.938;2023-10-09T00:57:18;13.60;99.90
7588;DHT22;3835;48.850;8.938;2023-10-09T00:59:53;13.50;99.90
7588;DHT22;3835;48.850;8.938;2023-10-09T01:02:26;13.50;99.90
7588;DHT22;3835;48.850;8.938;2023-10-09T01:05:02;13.50;99.90
7588;DHT22;3835;48.850;8.938;2023-10-09T01:07:46;13.50;99.90
7588;DHT22;3835;48.850;8.938;2023-10-09T01:10:13;13.40;99.90
7588;DHT22;3835;48.850;8.938;2023-10-09T01:12:43;13.50;99.90
7588;DHT22;3835;48.850;8.938;2023-10-09T01:15:12;13.50;99.90
7588;DHT22;3835;48.850;8.938;2023-10-09T01:18:02;13.60;99.90
7588;DHT22;3835;48.850;8.938;2023-10-09T01:20:33;13.60;99.90
7588;DHT22;3835;48.850;8.938;2023-10-09T01:23:09;13.60;99.90
7588;DHT22;3835;48.850;8.938;2023-10-09T01:25:36;13.60;99.90
7588;DHT22;3835;48.850;8.938;2023-10-09T01:28:10;13.50;99.90
7588;DHT22;3835;48.850;8.938;2023-10-09T01:30:42;13.50;99.90
7588;DHT22;3835;48.850;8.938;2023-10-09T01:33:09;13.50;99.90
7588;DHT22;3835;48.850;8.938;2023-10-09T01:35:48;13.60;99.90
7588;DHT22;3835;48.850;8.938;2023-10-09T01:38:19;13.70;99.90
7588;DHT22;3835;48.850;8.938;2023-10-09T01:40:56;13.70;99.90
7588;DHT22;3835;48.850;8.938;2023-10-09T01:43:30;13.60;99.90
7588;DHT22;3835;48.850;8.938;2023-10-09T01:45:59;13.70;99.90
7588;DHT22;3835;48.850;8.938;2023-10-09T01:48:29;13.70;99.90
7588;DHT22;3835;48.850;8.938;2023-10-09T01:51:01;13.60;99.90
7588;DHT22;3835;48.850;8.938;2023-10-09T01:53:32;13.60;99.90
7588;DHT22;3835;48.850;8.938;2023-10-09T01:56:08;13.60;99.90
7588;DHT22;3835;48.850;8.938;2023-10-09T01:58:41;13.60;99.90
7588;DHT22;3835;48.850;8.938;2023-10-09T02:01:08;13.60;99.90
7588;DHT22;3835;48.850;8.938;2023-10-09T02:03:35;13.60;99.90
7588;DHT22;3835;48.850;8.938;2023-10-09T02:06:03;13.60;99.90
7588;DHT22;3835;48.850;8.938;2023-10-09T02:08:52;13.60;99.90
7588;DHT22;3835;48.850;8.938;2023-10-09T02:11:19;13.50;99.90
7588;DHT22;3835;48.850;8.938;2023-10-09T02:13:50;13.50;99.90
7588;DHT22;3835;48.850;8.938;2023-10-09T02:16:26;13.60;99.90
7588;DHT22;3835;48.850;8.938;2023-10-09T02:18:54;13.60;99.90
7588;DHT22;3835;48.850;8.938;2023-10-09T02:21:24;13.60;99.90
7588;DHT22;3835;48.850;8.938;2023-10-09T02:24:01;13.70;99.90
7588;DHT22;3835;48.850;8.938;2023-10-09T02:26:34;13.70;99.90
7588;DHT22;3835;48.850;8.938;2023-10-09T02:29:27;13.80;99.90
7588;DHT22;3835;48.850;8.938;2023-10-09T02:31:54;13.90;99.90
7588;DHT22;3835;48.850;8.938;2023-10-09T02:34:26;13.90;99.90
7588;DHT22;3835;48.850;8.938;2023-10-09T02:36:54;13.90;99.90
7588;DHT22;3835;48.850;8.938;2023-10-09T02:39:31;13.90;99.90
7588;DHT22;3835;48.850;8.938;2023-10-09T02:42:02;13.90;99.90
7588;DHT22;3835;48.850;8.938;2023-10-09T02:44:44;13.90;99.90
7588;DHT22;3835;48.850;8.938;2023-10-09T02:47:15;14.00;99.90
7588;DHT22;3835;48.850;8.938;2023-10-09T02:49:46;14.00;99.90
7588;DHT22;3835;48.850;8.938;2023-10-09T02:52:15;14.00;99.90
7588;DHT22;3835;48.850;8.938;2023-10-09T02:54:45;14.10;99.90
7588;DHT22;3835;48.850;8.938;2023-10-09T02:57:13;14.10;99.90
7588;DHT22;3835;48.850;8.938;2023-10-09T02:59:47;14.00;99.90
7588;DHT22;3835;48.850;8.938;2023-10-09T03:02:17;14.00;99.90
7588;DHT22;3835;48.850;8.938;2023-10-09T03:04:44;14.00;99.90
7588;DHT22;3835;48.850;8.938;2023-10-09T03:07:11;14.00;99.90
7588;DHT22;3835;48.850;8.938;2023-10-09T03:09:39;13.90;99.90
7588;DHT22;3835;48.850;8.938;2023-10-09T03:12:08;13.90;99.90
7588;DHT22;3835;48.850;8.938;2023-10-09T03:14:39;14.00;99.90
7588;DHT22;3835;48.850;8.938;2023-10-09T03:17:07;14.10;99.90
7588;DHT22;3835;48.850;8.938;2023-10-09T03:19:37;14.20;99.90
7588;DHT22;3835;48.850;8.938;2023-10-09T03:22:05;14.20;99.90
7588;DHT22;3835;48.850;8.938;2023-10-09T03:24:34;14.20;99.90
7588;DHT22;3835;48.850;8.938;2023-10-09T03:27:02;14.10;99.90
7588;DHT22;3835;48.850;8.938;2023-10-09T03:29:30;14.10;99.90
7588;DHT22;3835;48.850;8.938;2023-10-09T03:31:57;14.00;99.90
7588;DHT22;3835;48.850;8.938;2023-10-09T03:34:25;14.10;99.90
7588;DHT22;3835;48.850;8.938;2023-10-09T03:36:53;14.10;99.90
7588;DHT22;3835;48.850;8.938;2023-10-09T03:39:29;14.10;99.90
7588;DHT22;3835;48.850;8.938;2023-10-09T03:42:06;14.20;99.90
7588;DHT22;3835;48.850;8.938;2023-10-09T03:44:45;14.20;99.90
7588;DHT22;3835;48.850;8.938;2023-10-09T03:47:17;14.20;99.90
7588;DHT22;3835;48.850;8.938;2023-10-09T03:49:48;14.10;99.90
7588;DHT22;3835;48.850;8.938;2023-10-09T03:52:16;14.10;99.90
7588;DHT22;3835;48.850;8.938;2023-10-09T03:54:45;14.00;99.90
7588;DHT22;3835;48.850;8.938;2023-10-09T03:57:12;14.10;99.90
7588;DHT22;3835;48.850;8.938;2023-10-09T03:59:45;14.10;99.90
7588;DHT22;3835;48.850;8.938;2023-10-09T04:02:12;14.00;99.90
7588;DHT22;3835;48.850;8.938;2023-10-09T04:04:39;14.00;99.90
7588;DHT22;3835;48.850;8.938;2023-10-09T04:07:11;14.00;99.90
7588;DHT22;3835;48.850;8.938;2023-10-09T04:09:38;14.00;99.90
7588;DHT22;3835;48.850;8.938;2023-10-09T04:12:10;13.90;99.90
7588;DHT22;3835;48.850;8.938;2023-10-09T04:14:47;13.80;99.90
7588;DHT22;3835;48.850;8.938;2023-10-09T04:17:16;13.60;99.90
7588;DHT22;3835;48.850;8.938;2023-10-09T04:20:06;13.40;99.90
7588;DHT22;3835;48.850;8.938;2023-10-09T04:22:56;13.10;99.90
7588;DHT22;3835;48.850;8.938;2023-10-09T04:25:30;12.90;99.90
7588;DHT22;3835;48.850;8.938;2023-10-09T04:28:07;12.80;99.90
7588;DHT22;3835;48.850;8.938;2023-10-09T04:30:37;12.70;99.90
7588;DHT22;3835;48.850;8.938;2023-10-09T04:33:08;12.70;99.90
7588;DHT22;3835;48.850;8.938;2023-10-09T04:35:53;12.80;99.90
7588;DHT22;3835;48.850;8.938;2023-10-09T04:38:34;12.80;99.90
7588;DHT22;3835;48.850;8.938;2023-10-09T04:41:05;12.80;99.90
7588;DHT22;3835;48.850;8.938;2023-10-09T04:43:33;12.80;99.90
7588;DHT22;3835;48.850;8.938;2023-10-09T04:46:00;12.80;99.90
7588;DHT22;3835;48.850;8.938;2023-10-09T04:48:37;12.80;99.90
7588;DHT22;3835;48.850;8.938;2023-10-09T04:51:04;12.90;99.90
7588;DHT22;3835;48.850;8.938;2023-10-09T04:53:54;12.90;99.90
7588;DHT22;3835;48.850;8.938;2023-10-09T04:56:25;12.90;99.90
7588;DHT22;3835;48.850;8.938;2023-10-09T04:58:57;12.90;99.90
7588;DHT22;3835;48.850;8.938;2023-10-09T05:01:31;13.10;99.90
7588;DHT22;3835;48.850;8.938;2023-10-09T05:04:22;13.20;99.90
7588;DHT22;3835;48.850;8.938;2023-10-09T05:07:04;13.40;99.90
7588;DHT22;3835;48.850;8.938;2023-10-09T05:09:48;13.40;99.90
7588;DHT22;3835;48.850;8.938;2023-10-09T05:12:40;13.50;99.90
7588;DHT22;3835;48.850;8.938;2023-10-09T05:15:12;13.50;99.90
7588;DHT22;3835;48.850;8.938;2023-10-09T05:17:40;13.50;99.90
7588;DHT22;3835;48.850;8.938;2023-10-09T05:20:17;13.50;99.90
7588;DHT22;3835;48.850;8.938;2023-10-09T05:23:10;13.40;99.90
7588;DHT22;3835;48.850;8.938;2023-10-09T05:25:52;13.50;99.90
7588;DHT22;3835;48.850;8.938;2023-10-09T05:28:21;13.60;99.90
7588;DHT22;3835;48.850;8.938;2023-10-09T05:31:26;13.80;99.90
7588;DHT22;3835;48.850;8.938;2023-10-09T05:34:21;14.00;99.90
7588;DHT22;3835;48.850;8.938;2023-10-09T05:36:48;14.00;99.90
7588;DHT22;3835;48.850;8.938;2023-10-09T05:39:14;14.00;99.90
7588;DHT22;3835;48.850;8.938;2023-10-09T05:41:48;13.90;99.90
7588;DHT22;3835;48.850;8.938;2023-10-09T05:44:18;14.00;99.90
7588;DHT22;3835;48.850;8.938;2023-10-09T05:47:04;14.00;99.90
7588;DHT22;3835;48.850;8.938;2023-10-09T05:49:44;14.00;99.90
7588;DHT22;3835;48.850;8.938;2023-10-09T05:52:27;13.90;99.90
7588;DHT22;3835;48.850;8.938;2023-10-09T05:55:19;13.90;99.90
7588;DHT22;3835;48.850;8.938;2023-10-09T05:58:07;14.00;99.90
7588;DHT22;3835;48.850;8.938;2023-10-09T06:00:51;14.00;99.90
7588;DHT22;3835;48.850;8.938;2023-10-09T06:03:37;13.90;99.90
7588;DHT22;3835;48.850;8.938;2023-10-09T06:06:19;14.10;99.90
7588;DHT22;3835;48.850;8.938;2023-10-09T06:09:00;14.20;99.90
7588;DHT22;3835;48.850;8.938;2023-10-09T06:11:55;14.20;99.90
7588;DHT22;3835;48.850;8.938;2023-10-09T06:14:42;14.30;99.90
7588;DHT22;3835;48.850;8.938;2023-10-09T06:17:15;14.30;99.90
7588;DHT22;3835;48.850;8.938;2023-10-09T06:19:51;14.40;99.90
7588;DHT22;3835;48.850;8.938;2023-10-09T06:22:24;14.40;99.90
7588;DHT22;3835;48.850;8.938;2023-10-09T06:25:11;14.40;99.90
7588;DHT22;3835;48.850;8.938;2023-10-09T06:27:44;14.50;99.90
7588;DHT22;3835;48.850;8.938;2023-10-09T06:30:27;14.60;99.90
7588;DHT22;3835;48.850;8.938;2023-10-09T06:32:54;14.70;99.90
7588;DHT22;3835;48.850;8.938;2023-10-09T06:35:46;14.80;99.90
7588;DHT22;3835;48.850;8.938;2023-10-09T06:38:20;14.70;99.90
7588;DHT22;3835;48.850;8.938;2023-10-09T06:40:48;14.80;99.90
7588;DHT22;3835;48.850;8.938;2023-10-09T06:43:32;14.80;99.90
7588;DHT22;3835;48.850;8.938;2023-10-09T06:46:02;14.80;99.90
7588;DHT22;3835;48.850;8.938;2023-10-09T06:49:09;14.80;99.90
7588;DHT22;3835;48.850;8.938;2023-10-09T06:51:55;14.90;99.90
7588;DHT22;3835;48.850;8.938;2023-10-09T06:54:39;15.00;99.90
7588;DHT22;3835;48.850;8.938;2023-10-09T06:57:05;15.10;99.90
7588;DHT22;3835;48.850;8.938;2023-10-09T06:59:43;15.20;99.90
7588;DHT22;3835;48.850;8.938;2023-10-09T07:02:24;15.20;99.90
7588;DHT22;3835;48.850;8.938;2023-10-09T07:04:56;15.40;99.90
7588;DHT22;3835;48.850;8.938;2023-10-09T07:07:37;15.50;99.90
7588;DHT22;3835;48.850;8.938;2023-10-09T07:10:16;15.60;99.90
7588;DHT22;3835;48.850;8.938;2023-10-09T07:12:59;15.80;99.90
7588;DHT22;3835;48.850;8.938;2023-10-09T07:15:27;15.80;99.90
7588;DHT22;3835;48.850;8.938;2023-10-09T07:18:12;15.90;99.90
7588;DHT22;3835;48.850;8.938;2023-10-09T07:21:06;16.00;99.90
7588;DHT22;3835;48.850;8.938;2023-10-09T07:23:38;16.10;99.90
7588;DHT22;3835;48.850;8.938;2023-10-09T07:26:13;16.20;99.90
7588;DHT22;3835;48.850;8.938;2023-10-09T07:28:48;16.30;99.90
7588;DHT22;3835;48.850;8.938;2023-10-09T07:31:19;16.50;99.90
7588;DHT22;3835;48.850;8.938;2023-10-09T07:34:05;16.60;99.90
7588;DHT22;3835;48.850;8.938;2023-10-09T07:36:53;16.60;99.90
7588;DHT22;3835;48.850;8.938;2023-10-09T07:39:23;16.70;99.90
7588;DHT22;3835;48.850;8.938;2023-10-09T07:42:00;16.80;99.90
7588;DHT22;3835;48.850;8.938;2023-10-09T07:44:41;16.90;99.90
7588;DHT22;3835;48.850;8.938;2023-10-09T07:47:18;17.00;99.90
7588;DHT22;3835;48.850;8.938;2023-10-09T07:50:11;17.20;99.90
7588;DHT22;3835;48.850;8.938;2023-10-09T07:52:38;17.40;99.90
7588;DHT22;3835;48.850;8.938;2023-10-09T07:55:10;17.50;99.90
7588;DHT22;3835;48.850;8.938;2023-10-09T07:57:52;17.60;99.90
7588;DHT22;3835;48.850;8.938;2023-10-09T08:00:18;17.70;99.90
7588;DHT22;3835;48.850;8.938;2023-10-09T08:03:23;17.80;99.90
7588;DHT22;3835;48.850;8.938;2023-10-09T08:05:50;17.90;99.90
7588;DHT22;3835;48.850;8.938;2023-10-09T08:08:19;18.00;99.90
7588;DHT22;3835;48.850;8.938;2023-10-09T08:11:01;18.10;99.90
7588;DHT22;3835;48.850;8.938;2023-10-09T08:13:45;18.10;99.90
7588;DHT22;3835;48.850;8.938;2023-10-09T08:16:22;18.20;99.90
7588;DHT22;3835;48.850;8.938;2023-10-09T08:18:50;18.30;99.90
7588;DHT22;3835;48.850;8.938;2023-10-09T08:21:16;18.40;99.90
7588;DHT22;3835;48.850;8.938;2023-10-09T08:24:06;18.40;99.90
7588;DHT22;3835;48.850;8.938;2023-10-09T08:26:53;18.50;99.90
7588;DHT22;3835;48.850;8.938;2023-10-09T08:29:40;18.50;99.90
7588;DHT22;3835;48.850;8.938;2023-10-09T08:32:12;18.50;99.90
7588;DHT22;3835;48.850;8.938;2023-10-09T08:34:57;18.70;99.90
7588;DHT22;3835;48.850;8.938;2023-10-09T08:37:25;18.80;99.90
7588;DHT22;3835;48.850;8.938;2023-10-09T08:39:51;19.00;99.90
7588;DHT22;3835;48.850;8.938;2023-10-09T08:42:21;19.20;99.90
7588;DHT22;3835;48.850;8.938;2023-10-09T08:44:49;19.40;99.90
7588;DHT22;3835;48.850;8.938;2023-10-09T08:47:17;19.50;99.90
7588;DHT22;3835;48.850;8.938;2023-10-09T08:49:44;19.60;99.90
7588;DHT22;3835;48.850;8.938;2023-10-09T08:52:11;19.70;99.90
7588;DHT22;3835;48.850;8.938;2023-10-09T08:54:39;19.80;99.90
7588;DHT22;3835;48.850;8.938;2023-10-09T08:57:06;19.90;99.90
7588;DHT22;3835;48.850;8.938;2023-10-09T08:59:40;19.90;99.90
7588;DHT22;3835;48.850;8.938;2023-10-09T09:02:08;20.00;99.90
7588;DHT22;3835;48.850;8.938;2023-10-09T09:04:38;20.10;99.90
7588;DHT22;3835;48.850;8.938;2023-10-09T09:07:06;20.20;99.90
7588;DHT22;3835;48.850;8.938;2023-10-09T09:09:33;20.20;99.90
7588;DHT22;3835;48.850;8.938;2023-10-09T09:12:00;20.30;99.90
7588;DHT22;3835;48.850;8.938;2023-10-09T09:14:38;20.40;99.90
7588;DHT22;3835;48.850;8.938;2023-10-09T09:17:06;20.40;99.90
7588;DHT22;3835;48.850;8.938;2023-10-09T09:19:37;20.40;99.90
7588;DHT22;3835;48.850;8.938;2023-10-09T09:22:05;20.50;99.90
7588;DHT22;3835;48.850;8.938;2023-10-09T09:24:38;20.50;99.90
7588;DHT22;3835;48.850;8.938;2023-10-09T09:27:11;20.70;99.90
7588;DHT22;3835;48.850;8.938;2023-10-09T09:29:45;20.70;99.90
7588;DHT22;3835;48.850;8.938;2023-10-09T09:32:27;20.70;99.90
7588;DHT22;3835;48.850;8.938;2023-10-09T09:34:56;20.80;99.90
7588;DHT22;3835;48.850;8.938;2023-10-09T09:37:27;20.90;99.90
7588;DHT22;3835;48.850;8.938;2023-10-09T09:39:57;20.90;99.90
7588;DHT22;3835;48.850;8.938;2023-10-09T09:42:27;21.10;99.90
7588;DHT22;3835;48.850;8.938;2023-10-09T09:45:00;21.30;99.90
7588;DHT22;3835;48.850;8.938;2023-10-09T09:47:27;21.40;99.90
7588;DHT22;3835;48.850;8.938;2023-10-09T09:49:57;21.50;99.90
7588;DHT22;3835;48.850;8.938;2023-10-09T09:52:31;21.60;99.90
7588;DHT22;3835;48.850;8.938;2023-10-09T09:55:05;21.80;99.90
7588;DHT22;3835;48.850;8.938;2023-10-09T09:57:33;22.10;99.90
7588;DHT22;3835;48.850;8.938;2023-10-09T10:00:09;22.40;99.90
7588;DHT22;3835;48.850;8.938;2023-10-09T10:02:55;22.30;99.90
7588;DHT22;3835;48.850;8.938;2023-10-09T10:05:25;22.50;99.90
7588;DHT22;3835;48.850;8.938;2023-10-09T10:07:56;22.60;99.90
7588;DHT22;3835;48.850;8.938;2023-10-09T10:10:34;22.60;99.90
7588;DHT22;3835;48.850;8.938;2023-10-09T10:13:03;22.60;99.90
7588;DHT22;3835;48.850;8.938;2023-10-09T10:15:59;22.70;99.90
7588;DHT22;3835;48.850;8.938;2023-10-09T10:18:31;22.70;99.90
7588;DHT22;3835;48.850;8.938;2023-10-09T10:21:10;22.50;99.90
7588;DHT22;3835;48.850;8.938;2023-10-09T10:23:40;22.60;99.90
7588;DHT22;3835;48.850;8.938;2023-10-09T10:26:17;22.70;99.90
7588;DHT22;3835;48.850;8.938;2023-10-09T10:29:16;22.50;99.90
7588;DHT22;3835;48.850;8.938;2023-10-09T10:31:54;22.60;99.90
7588;DHT22;3835;48.850;8.938;2023-10-09T10:34:22;22.60;99.90
7588;DHT22;3835;48.850;8.938;2023-10-09T10:36:50;22.60;99.90
7588;DHT22;3835;48.850;8.938;2023-10-09T10:39:24;22.50;99.30
7588;DHT22;3835;48.850;8.938;2023-10-09T10:42:08;22.40;99.20
7588;DHT22;3835;48.850;8.938;2023-10-09T10:44:41;22.40;99.50
7588;DHT22;3835;48.850;8.938;2023-10-09T10:47:13;22.50;99.70
7588;DHT22;3835;48.850;8.938;2023-10-09T10:49:51;22.30;98.00
7588;DHT22;3835;48.850;8.938;2023-10-09T10:52:23;22.30;98.00
7588;DHT22;3835;48.850;8.938;2023-10-09T10:55:10;22.40;98.40
7588;DHT22;3835;48.850;8.938;2023-10-09T10:57:54;22.60;99.40
7588;DHT22;3835;48.850;8.938;2023-10-09T11:00:29;22.70;98.20
7588;DHT22;3835;48.850;8.938;2023-10-09T11:03:19;23.00;98.60
7588;DHT22;3835;48.850;8.938;2023-10-09T11:05:54;23.20;97.90
7588;DHT22;3835;48.850;8.938;2023-10-09T11:08:24;23.50;98.00
7588;DHT22;3835;48.850;8.938;2023-10-09T11:11:10;23.60;97.00
7588;DHT22;3835;48.850;8.938;2023-10-09T11:13:41;23.60;96.20
7588;DHT22;3835;48.850;8.938;2023-10-09T11:16:19;23.50;95.60
7588;DHT22;3835;48.850;8.938;2023-10-09T11:18:55;23.40;96.00
7588;DHT22;3835;48.850;8.938;2023-10-09T11:21:29;23.20;96.30
7588;DHT22;3835;48.850;8.938;2023-10-09T11:24:01;23.20;95.30
7588;DHT22;3835;48.850;8.938;2023-10-09T11:26:42;23.00;94.90
7588;DHT22;3835;48.850;8.938;2023-10-09T11:29:19;22.80;95.00
7588;DHT22;3835;48.850;8.938;2023-10-09T11:31:58;22.90;95.20
7588;DHT22;3835;48.850;8.938;2023-10-09T11:34:26;22.70;93.80
7588;DHT22;3835;48.850;8.938;2023-10-09T11:37:01;22.70;95.10
7588;DHT22;3835;48.850;8.938;2023-10-09T11:39:29;22.50;94.20
7588;DHT22;3835;48.850;8.938;2023-10-09T11:42:04;22.50;94.60
7588;DHT22;3835;48.850;8.938;2023-10-09T11:44:38;22.40;94.90
7588;DHT22;3835;48.850;8.938;2023-10-09T11:47:05;22.40;93.30
7588;DHT22;3835;48.850;8.938;2023-10-09T11:49:51;22.50;93.20
7588;DHT22;3835;48.850;8.938;2023-10-09T11:52:34;22.50;93.40
7588;DHT22;3835;48.850;8.938;2023-10-09T11:55:05;22.50;92.70
7588;DHT22;3835;48.850;8.938;2023-10-09T11:57:33;22.50;93.30
7588;DHT22;3835;48.850;8.938;2023-10-09T12:00:01;22.40;92.80
7588;DHT22;3835;48.850;8.938;2023-10-09T12:02:36;22.40;93.10
7588;DHT22;3835;48.850;8.938;2023-10-09T12:05:11;22.50;94.00
7588;DHT22;3835;48.850;8.938;2023-10-09T12:07:43;22.70;93.10
7588;DHT22;3835;48.850;8.938;2023-10-09T12:10:10;22.80;93.30
7588;DHT22;3835;48.850;8.938;2023-10-09T12:12:39;22.80;92.80
7588;DHT22;3835;48.850;8.938;2023-10-09T12:15:07;23.00;91.40
7588;DHT22;3835;48.850;8.938;2023-10-09T12:17:38;23.20;92.10
7588;DHT22;3835;48.850;8.938;2023-10-09T12:20:11;23.20;92.90
7588;DHT22;3835;48.850;8.938;2023-10-09T12:22:56;23.30;92.10
7588;DHT22;3835;48.850;8.938;2023-10-09T12:25:23;23.30;90.60
7588;DHT22;3835;48.850;8.938;2023-10-09T12:27:50;23.40;90.30
7588;DHT22;3835;48.850;8.938;2023-10-09T12:30:20;23.40;90.00
7588;DHT22;3835;48.850;8.938;2023-10-09T12:32:52;23.40;89.10
7588;DHT22;3835;48.850;8.938;2023-10-09T12:35:20;23.50;86.50
7588;DHT22;3835;48.850;8.938;2023-10-09T12:37:50;23.60;90.30
7588;DHT22;3835;48.850;8.938;2023-10-09T12:40:17;23.50;83.90
7588;DHT22;3835;48.850;8.938;2023-10-09T12:42:51;23.50;84.70
7588;DHT22;3835;48.850;8.938;2023-10-09T12:45:21;23.40;83.90
7588;DHT22;3835;48.850;8.938;2023-10-09T12:47:52;23.50;85.80
7588;DHT22;3835;48.850;8.938;2023-10-09T12:50:21;23.50;81.30
7588;DHT22;3835;48.850;8.938;2023-10-09T12:52:54;23.40;77.70
7588;DHT22;3835;48.850;8.938;2023-10-09T12:55:21;23.40;79.00
7588;DHT22;3835;48.850;8.938;2023-10-09T12:57:59;23.40;82.80
7588;DHT22;3835;48.850;8.938;2023-10-09T13:00:29;23.30;78.90
7588;DHT22;3835;48.850;8.938;2023-10-09T13:02:58;23.30;78.30
7588;DHT22;3835;48.850;8.938;2023-10-09T13:05:28;23.30;81.40
7588;DHT22;3835;48.850;8.938;2023-10-09T13:07:55;23.40;77.70
7588;DHT22;3835;48.850;8.938;2023-10-09T13:10:23;23.50;79.70
7588;DHT22;3835;48.850;8.938;2023-10-09T13:12:51;23.50;79.10
7588;DHT22;3835;48.850;8.938;2023-10-09T13:15:21;23.40;74.80
7588;DHT22;3835;48.850;8.938;2023-10-09T13:17:48;23.30;78.70
7588;DHT22;3835;48.850;8.938;2023-10-09T13:20:18;23.30;76.90
7588;DHT22;3835;48.850;8.938;2023-10-09T13:22:46;23.40;77.50
7588;DHT22;3835;48.850;8.938;2023-10-09T13:25:14;23.40;76.90
7588;DHT22;3835;48.850;8.938;2023-10-09T13:27:42;23.50;73.60
7588;DHT22;3835;48.850;8.938;2023-10-09T13:30:16;23.60;74.40
7588;DHT22;3835;48.850;8.938;2023-10-09T13:32:48;23.60;71.40
7588;DHT22;3835;48.850;8.938;2023-10-09T13:35:16;23.60;73.70
7588;DHT22;3835;48.850;8.938;2023-10-09T13:37:43;23.70;68.90
7588;DHT22;3835;48.850;8.938;2023-10-09T13:40:18;23.70;75.20
7588;DHT22;3835;48.850;8.938;2023-10-09T13:42:53;23.80;73.40
7588;DHT22;3835;48.850;8.938;2023-10-09T13:45:25;23.80;68.90
7588;DHT22;3835;48.850;8.938;2023-10-09T13:47:53;23.80;70.10
7588;DHT22;3835;48.850;8.938;2023-10-09T13:50:20;23.80;68.00
7588;DHT22;3835;48.850;8.938;2023-10-09T13:52:47;23.90;67.80
7588;DHT22;3835;48.850;8.938;2023-10-09T13:55:14;24.00;66.30
7588;DHT22;3835;48.850;8.938;2023-10-09T13:57:45;23.90;64.60
7588;DHT22;3835;48.850;8.938;2023-10-09T14:00:13;23.90;66.80
7588;DHT22;3835;48.850;8.938;2023-10-09T14:02:43;24.00;65.70
7588;DHT22;3835;48.850;8.938;2023-10-09T14:05:12;24.00;66.40
7588;DHT22;3835;48.850;8.938;2023-10-09T14:07:39;24.00;66.30
7588;DHT22;3835;48.850;8.938;2023-10-09T14:10:07;24.10;66.50
7588;DHT22;3835;48.850;8.938;2023-10-09T14:12:44;24.10;67.60
7588;DHT22;3835;48.850;8.938;2023-10-09T14:15:11;24.10;66.90
7588;DHT22;3835;48.850;8.938;2023-10-09T14:17:42;24.10;67.00
7588;DHT22;3835;48.850;8.938;2023-10-09T14:20:12;24.20;65.20
7588;DHT22;3835;48.850;8.938;2023-10-09T14:22:59;24.10;65.40
7588;DHT22;3835;48.850;8.938;2023-10-09T14:25:32;24.10;66.40
7588;DHT22;3835;48.850;8.938;2023-10-09T14:28:01;24.10;67.90
7588;DHT22;3835;48.850;8.938;2023-10-09T14:30:33;24.10;69.40
7588;DHT22;3835;48.850;8.938;2023-10-09T14:33:08;24.00;66.90
7588;DHT22;3835;48.850;8.938;2023-10-09T14:35:38;23.90;69.10
7588;DHT22;3835;48.850;8.938;2023-10-09T14:38:05;23.90;67.90
7588;DHT22;3835;48.850;8.938;2023-10-09T14:40:37;23.90;67.30
7588;DHT22;3835;48.850;8.938;2023-10-09T14:43:08;23.80;67.60
7588;DHT22;3835;48.850;8.938;2023-10-09T14:45:44;23.80;68.70
7588;DHT22;3835;48.850;8.938;2023-10-09T14:48:14;23.80;69.60
7588;DHT22;3835;48.850;8.938;2023-10-09T14:50:46;23.70;69.30
7588;DHT22;3835;48.850;8.938;2023-10-09T14:53:14;23.70;67.80
7588;DHT22;3835;48.850;8.938;2023-10-09T14:55:40;23.70;68.80
7588;DHT22;3835;48.850;8.938;2023-10-09T14:58:12;23.70;68.30
7588;DHT22;3835;48.850;8.938;2023-10-09T15:00:38;23.60;69.40
7588;DHT22;3835;48.850;8.938;2023-10-09T15:03:12;23.50;68.80
7588;DHT22;3835;48.850;8.938;2023-10-09T15:05:40;23.50;67.50
7588;DHT22;3835;48.850;8.938;2023-10-09T15:08:08;23.40;68.20
7588;DHT22;3835;48.850;8.938;2023-10-09T15:10:43;23.30;67.10
7588;DHT22;3835;48.850;8.938;2023-10-09T15:13:11;23.30;66.80
7588;DHT22;3835;48.850;8.938;2023-10-09T15:15:40;23.20;66.80
7588;DHT22;3835;48.850;8.938;2023-10-09T15:18:07;23.10;67.40
7588;DHT22;3835;48.850;8.938;2023-10-09T15:20:37;23.10;66.70
7588;DHT22;3835;48.850;8.938;2023-10-09T15:23:05;23.00;67.40
7588;DHT22;3835;48.850;8.938;2023-10-09T15:25:32;22.90;69.00
7588;DHT22;3835;48.850;8.938;2023-10-09T15:28:00;22.80;69.50
7588;DHT22;3835;48.850;8.938;2023-10-09T15:30:29;22.80;69.30
7588;DHT22;3835;48.850;8.938;2023-10-09T15:32:57;22.70;69.60
7588;DHT22;3835;48.850;8.938;2023-10-09T15:35:23;22.70;69.20
7588;DHT22;3835;48.850;8.938;2023-10-09T15:37:50;22.70;70.20
7588;DHT22;3835;48.850;8.938;2023-10-09T15:40:18;22.60;70.20
7588;DHT22;3835;48.850;8.938;2023-10-09T15:42:50;22.50;72.20
7588;DHT22;3835;48.850;8.938;2023-10-09T15:45:21;22.50;71.80
7588;DHT22;3835;48.850;8.938;2023-10-09T15:47:49;22.40;71.40
7588;DHT22;3835;48.850;8.938;2023-10-09T15:50:17;22.30;72.00
7588;DHT22;3835;48.850;8.938;2023-10-09T15:52:44;22.30;72.60
7588;DHT22;3835;48.850;8.938;2023-10-09T15:55:13;22.20;72.60
7588;DHT22;3835;48.850;8.938;2023-10-09T15:57:40;22.10;72.80
7588;DHT22;3835;48.850;8.938;2023-10-09T16:00:08;22.10;72.20
7588;DHT22;3835;48.850;8.938;2023-10-09T16:02:39;22.10;72.60
7588;DHT22;3835;48.850;8.938;2023-10-09T16:05:09;22.10;72.80
7588;DHT22;3835;48.850;8.938;2023-10-09T16:07:37;21.90;73.10
7588;DHT22;3835;48.850;8.938;2023-10-09T16:10:06;21.90;73.70
7588;DHT22;3835;48.850;8.938;2023-10-09T16:12:34;21.80;74.70
7588;DHT22;3835;48.850;8.938;2023-10-09T16:15:01;21.60;74.50
7588;DHT22;3835;48.850;8.938;2023-10-09T16:17:30;21.50;75.90
7588;DHT22;3835;48.850;8.938;2023-10-09T16:19:57;21.40;76.50
7588;DHT22;3835;48.850;8.938;2023-10-09T16:22:27;21.20;77.80
7588;DHT22;3835;48.850;8.938;2023-10-09T16:24:55;21.10;78.00
7588;DHT22;3835;48.850;8.938;2023-10-09T16:27:22;21.00;77.90
7588;DHT22;3835;48.850;8.938;2023-10-09T16:29:50;20.80;78.30
7588;DHT22;3835;48.850;8.938;2023-10-09T16:32:17;20.80;79.00
7588;DHT22;3835;48.850;8.938;2023-10-09T16:34:48;20.60;79.50
7588;DHT22;3835;48.850;8.938;2023-10-09T16:37:15;20.50;79.80
7588;DHT22;3835;48.850;8.938;2023-10-09T16:39:44;20.50;79.20
7588;DHT22;3835;48.850;8.938;2023-10-09T16:42:11;20.40;78.70